Time;durP1;ratioP1;P1;durP2;ratioP2;P2;SDS_P1;SDS_P2;PMS_P1;PMS_P2;Temp;Humidity;BMP_temperature;BMP_pressure;BME280_temperature;BME280_humidity;BME280_pressure;Samples;Min_cycle;Max_cycle;Signal;HPM_P1;HPM_P2
2023/01/30 10:55:50;;;;;;;6.40;2.37;;;;;;;20.84;46.92;97475.38;1721565;76;2380508;-94
2023/01/30 10:58:34;;;;;;;7.28;2.15;;;;;;;16.60;46.66;97476.97;1597338;84;2589710;-92
2023/01/30 11:01:23;;;;;;;6.78;2.47;;;;;;;12.65;46.76;97465.91;1575147;85;1832182;-90
2023/01/30 11:04:07;;;;;;;7.35;3.08;;;;;;;10.11;47.37;97485.55;1620058;87;21108;-90
2023/01/30 11:06:34;;;;;;;10.55;4.17;;;;;;;8.40;47.49;97476.23;1593259;88;21609;-90
2023/01/30 11:09:02;;;;;;;14.38;3.55;;;;;;;7.04;48.36;97480.28;1623804;87;21088;-91
2023/01/30 11:11:51;;;;;;;11.95;3.70;;;;;;;6.27;48.23;97482.37;1621528;87;21090;-91
2023/01/30 11:14:18;;;;;;;16.30;3.50;;;;;;;5.49;49.36;97479.56;1623340;86;21021;-90
2023/01/30 11:16:53;;;;;;;9.90;2.50;;;;;;;4.88;49.88;97491.06;1596248;88;21056;-91
2023/01/30 11:19:33;;;;;;;12.15;3.22;;;;;;;4.50;50.39;97495.44;1613873;87;21089;-91
2023/01/30 11:22:04;;;;;;;9.65;3.05;;;;;;;4.33;51.10;97496.88;1618391;87;21211;-90
2023/01/30 11:24:48;;;;;;;10.68;2.90;;;;;;;4.46;51.76;97477.99;1623049;87;21132;-90
2023/01/30 11:27:20;;;;;;;11.45;3.83;;;;;;;4.56;52.90;97480.86;1618812;87;21156;-92
2023/01/30 11:29:54;;;;;;;14.07;3.08;;;;;;;4.63;53.36;97461.49;1612292;87;21093;-93
2023/01/30 11:32:28;;;;;;;12.88;3.30;;;;;;;4.63;54.10;97474.41;1593419;88;21587;-92
2023/01/30 11:35:09;;;;;;;17.25;4.17;;;;;;;4.68;54.45;97460.77;1603656;87;21112;-93
2023/01/30 11:37:45;;;;;;;12.73;3.25;;;;;;;4.76;54.75;97467.22;1615380;87;21200;-93
2023/01/30 11:40:20;;;;;;;19.30;4.22;;;;;;;4.75;55.33;97462.98;1626802;87;21182;-92
2023/01/30 11:42:52;;;;;;;13.00;3.45;;;;;;;4.71;55.78;97463.63;1620979;87;21137;-91
2023/01/30 11:45:28;;;;;;;7.83;3.08;;;;;;;4.61;56.42;97440.06;1598342;87;21557;-88
2023/01/30 11:48:04;;;;;;;22.45;3.62;;;;;;;4.53;57.35;97429.35;1623345;87;21033;-91
2023/01/30 11:50:43;;;;;;;9.25;2.52;;;;;;;4.31;57.59;97418.62;1590629;87;21108;-93
2023/01/30 11:53:21;;;;;;;10.03;3.85;;;;;;;4.22;58.15;97423.40;1647569;85;21079;-90
2023/01/30 11:55:48;;;;;;;14.47;3.60;;;;;;;4.07;59.28;97433.34;1592600;87;21609;-91
2023/01/30 11:58:15;;;;;;;17.85;4.10;;;;;;;3.90;59.58;97421.86;1615769;87;21570;-94
2023/01/30 12:00:51;;;;;;;14.05;3.27;;;;;;;3.78;60.38;97413.89;1618136;87;21028;-92
2023/01/30 12:03:48;;;;;;;15.63;3.12;;;;;;;3.62;60.28;97422.13;1578861;88;21609;-90
2023/01/30 12:06:29;;;;;;;13.38;3.30;;;;;;;3.60;61.74;97431.69;1529242;92;21079;-93
2023/01/30 12:08:59;;;;;;;18.90;4.22;;;;;;;3.51;61.55;97420.59;1532229;91;21020;-90
2023/01/30 12:11:43;;;;;;;14.90;3.30;;;;;;;3.62;61.80;97431.16;1543970;91;21125;-90
2023/01/30 12:14:33;;;;;;;12.18;2.50;;;;;;;3.70;61.77;97428.98;1519475;93;21157;-91
2023/01/30 12:17:20;;;;;;;15.15;3.37;;;;;;;3.67;62.04;97439.48;1546035;91;21665;-89
2023/01/30 12:20:35;;;;;;;13.83;3.12;;;;;;;3.55;62.08;97419.50;1536016;92;21138;-89
2023/01/30 12:23:21;;;;;;;11.50;2.17;;;;;;;3.47;62.59;97442.30;1549608;91;21155;-88
2023/01/30 12:26:05;;;;;;;11.53;2.35;;;;;;;3.27;62.63;97421.01;1519285;93;21149;-90
2023/01/30 12:28:49;;;;;;;15.50;2.60;;;;;;;3.20;63.04;97446.77;1528143;92;21145;-89
2023/01/30 12:31:26;;;;;;;9.50;2.52;;;;;;;3.11;63.17;97430.52;1546515;91;21210;-88
2023/01/30 12:33:55;;;;;;;12.23;3.05;;;;;;;3.17;63.11;97432.76;1547251;90;21556;-90
2023/01/30 12:36:29;;;;;;;20.10;3.85;;;;;;;3.24;63.35;97452.12;1546250;91;21185;-88
2023/01/30 12:39:25;;;;;;;9.50;3.05;;;;;;;3.33;63.35;97447.78;1549029;90;21130;-90
2023/01/30 12:42:31;;;;;;;11.10;3.30;;;;;;;3.36;63.46;97457.93;1550580;88;21114;-89
2023/01/30 12:45:15;;;;;;;10.13;3.50;;;;;;;3.38;63.18;97446.22;1593430;88;21106;-91
2023/01/30 12:48:11;;;;;;;12.65;3.20;;;;;;;3.24;63.34;97440.52;1597206;88;21667;-92
2023/01/30 12:50:55;;;;;;;12.75;3.40;;;;;;;3.18;63.68;97439.57;1592063;88;21213;-89
2023/01/30 12:54:17;;;;;;;18.27;4.37;;;;;;;3.20;64.02;97445.48;1592942;88;21541;-90
2023/01/30 12:57:06;;;;;;;15.18;3.80;;;;;;;3.42;64.23;97443.01;1518635;92;21464;-91
2023/01/30 13:00:03;;;;;;;10.32;3.02;;;;;;;4.11;64.21;97436.10;1565582;90;21088;-90
2023/01/30 13:03:03;;;;;;;20.68;3.75;;;;;;;4.12;64.04;97430.04;1562873;90;21402;-93
2023/01/30 13:05:47;;;;;;;13.03;3.62;;;;;;;3.87;64.11;97432.37;1566053;90;21112;-88
2023/01/30 13:08:46;;;;;;;15.08;3.05;;;;;;;3.65;64.91;97425.81;1563431;90;21179;-91
2023/01/30 13:11:43;;;;;;;16.17;3.98;;;;;;;3.48;64.56;97427.22;1561990;90;21115;-90
2023/01/30 13:14:22;;;;;;;15.30;3.40;;;;;;;3.39;64.74;97440.17;1554666;90;21155;-92
2023/01/30 13:17:01;;;;;;;11.03;2.50;;;;;;;3.33;64.59;97427.15;1559536;90;21151;-92
2023/01/30 13:19:54;;;;;;;;;;;;;;;3.29;65.14;97442.40;1568491;90;21054;-93
2023/01/30 13:22:32;;;;;;;14.53;2.60;;;;;;;3.21;65.68;97441.98;1563973;90;20126;-93
2023/01/30 13:25:26;;;;;;;12.25;3.17;;;;;;;3.19;65.47;97446.38;1565715;90;21148;-93
2023/01/30 13:28:03;;;;;;;13.72;3.27;;;;;;;3.20;65.68;97435.17;1538319;90;21037;-93
2023/01/30 13:30:39;;;;;;;14.43;2.85;;;;;;;3.22;66.11;97430.77;1563052;90;21774;-92
2023/01/30 13:33:11;;;;;;;12.40;3.40;;;;;;;3.33;66.37;97420.70;1609488;87;21075;-93
2023/01/30 13:35:57;;;;;;;15.40;3.25;;;;;;;3.64;66.23;97421.59;1620131;87;21550;-92
2023/01/30 13:38:36;;;;;;;16.75;3.45;;;;;;;3.58;66.27;97412.44;1500958;93;21037;-93
2023/01/30 13:41:10;;;;;;;9.60;3.05;;;;;;;3.54;66.24;97435.91;1499972;93;21107;-90
2023/01/30 13:44:08;;;;;;;;;;;;;;;;;;;;;
2023/01/30 13:46:53;;;;;;;12.45;4.25;;;;;;;4.81;67.20;97413.48;1457006;96;21208;-89
2023/01/30 13:49:49;;;;;;;11.88;2.95;;;;;;;4.95;66.28;97432.86;1438175;97;21124;-89
2023/01/30 13:52:48;;;;;;;10.38;3.00;;;;;;;4.68;66.47;97433.63;1413449;99;21753;-90
2023/01/30 13:55:37;;;;;;;11.08;3.30;;;;;;;4.35;66.56;97435.62;1419463;98;21181;-90
2023/01/30 13:58:47;;;;;;;12.65;3.62;;;;;;;4.01;66.66;97434.98;1418121;98;21233;-90
2023/01/30 14:01:14;;;;;;;16.30;4.00;;;;;;;3.72;66.92;97432.28;1423542;98;21200;-91
2023/01/30 14:03:43;;;;;;;12.65;3.30;;;;;;;3.48;67.12;97437.54;1406809;98;21206;-91
2023/01/30 14:09:06;;;;;;;9.25;2.92;;;;;;;3.28;67.54;97479.44;1438791;98;21306;-89
2023/01/30 14:11:59;;;;;;;12.05;2.72;;;;;;;3.18;67.82;97439.57;1443553;98;21154;-86
2023/01/30 14:14:32;;;;;;;14.10;3.12;;;;;;;3.08;68.12;97448.70;1446952;94;21642;-92
2023/01/30 14:17:15;;;;;;;11.50;3.33;;;;;;;3.00;68.29;97448.30;1511675;94;21109;-88
2023/01/30 14:19:59;;;;;;;12.07;3.37;;;;;;;3.00;68.65;97456.03;1509472;94;21680;-88
2023/01/30 14:22:34;;;;;;;15.95;3.83;;;;;;;2.91;68.64;97451.73;1484825;95;21158;-88
2023/01/30 14:25:21;;;;;;;15.53;3.17;;;;;;;2.93;68.98;97459.84;1510850;93;21435;-89
2023/01/30 14:28:10;;;;;;;14.00;2.90;;;;;;;2.86;68.83;97465.31;1525450;91;21715;-89
2023/01/30 14:30:55;;;;;;;13.15;3.12;;;;;;;2.86;68.89;97434.39;1553740;91;21347;-88
2023/01/30 14:33:36;;;;;;;10.85;2.87;;;;;;;2.83;69.03;97456.45;1557229;90;21110;-90
2023/01/30 14:36:25;;;;;;;14.00;2.77;;;;;;;2.82;69.17;97465.08;1533935;91;21131;-89
2023/01/30 14:39:36;;;;;;;14.43;3.17;;;;;;;2.85;69.17;97461.05;1559478;90;21096;-89
2023/01/30 14:42:23;;;;;;;9.58;2.98;;;;;;;2.86;69.25;97478.20;1546524;89;21084;-89
2023/01/30 14:45:21;;;;;;;11.28;3.67;;;;;;;2.91;69.11;97503.29;1571761;89;21830;-89
2023/01/30 14:47:55;;;;;;;11.25;2.85;;;;;;;2.94;69.26;97495.00;1569184;90;21188;-88
2023/01/30 14:50:32;;;;;;;9.03;2.17;;;;;;;2.98;69.20;97490.08;1595327;88;21103;-88
2023/01/30 14:52:56;;;;;;;13.78;2.58;;;;;;;3.00;69.21;97511.00;1593112;88;21619;-88
2023/01/30 14:55:29;;;;;;;8.88;2.40;;;;;;;3.02;69.33;97504.46;1593222;88;21041;-90
2023/01/30 14:58:02;;;;;;;10.85;2.20;;;;;;;3.04;69.26;97503.93;1594435;88;21087;-89
2023/01/30 15:00:35;;;;;;;11.78;2.17;;;;;;;2.99;69.27;97499.00;1594220;88;21172;-89
2023/01/30 15:03:17;;;;;;;9.15;2.55;;;;;;;2.94;69.54;97492.42;1595731;88;21460;-89
2023/01/30 15:05:47;;;;;;;13.55;2.60;;;;;;;2.91;69.65;97512.31;1595601;87;21669;-89
2023/01/30 15:08:20;;;;;;;5.92;2.12;;;;;;;2.85;69.59;97501.00;1589001;87;21177;-89
2023/01/30 15:11:19;;;;;;;10.25;2.80;;;;;;;2.79;69.69;97509.06;1588078;88;21086;-89
2023/01/30 15:14:07;;;;;;;10.50;2.33;;;;;;;2.77;69.79;97514.73;1586844;87;21572;-88
2023/01/30 15:17:07;;;;;;;10.40;2.45;;;;;;;2.71;69.75;97515.05;1585403;88;21118;-89
2023/01/30 15:19:58;;;;;;;11.95;2.62;;;;;;;2.64;69.69;97516.30;1588792;88;21673;-88
2023/01/30 15:22:40;;;;;;;9.03;2.25;;;;;;;2.57;69.81;97517.50;1562566;88;21074;-87
2023/01/30 15:25:42;;;;;;;7.10;1.77;;;;;;;2.52;70.05;97524.62;1570871;88;21637;-87
2023/01/30 15:28:49;;;;;;;13.43;4.12;;;;;;;2.40;69.80;97519.16;1573463;89;21662;-90
2023/01/30 15:31:17;;;;;;;;;;;;;;;2.32;70.28;97529.01;1568915;89;21138;-89
2023/01/30 15:33:50;;;;;;;10.90;2.70;;;;;;;2.29;70.46;97523.19;1568487;88;20153;-89
2023/01/30 15:36:34;;;;;;;10.75;2.80;;;;;;;2.28;70.63;97535.23;1553996;89;21091;-89
2023/01/30 15:39:05;;;;;;;15.25;3.02;;;;;;;2.31;70.88;97546.67;1573450;88;21629;-89
2023/01/30 15:41:38;;;;;;;13.65;2.87;;;;;;;2.35;70.92;97540.91;1581009;88;21931;-87
2023/01/30 15:44:13;;;;;;;11.15;2.50;;;;;;;2.38;71.17;97550.62;1600734;88;21982;-88
2023/01/30 15:46:59;;;;;;;11.63;2.72;;;;;;;2.40;71.23;97555.22;1600230;88;21105;-88
2023/01/30 15:50:04;;;;;;;11.35;2.75;;;;;;;2.43;71.37;97564.55;1593571;88;21068;-88
2023/01/30 15:52:39;;;;;;;5.20;1.87;;;;;;;2.46;71.72;97572.98;1562367;89;21030;-88
2023/01/30 15:55:11;;;;;;;3.75;1.10;;;;;;;2.51;71.43;97589.94;1580214;89;21061;-88
2023/01/30 15:57:41;;;;;;;7.92;2.05;;;;;;;2.37;71.28;97604.31;1573256;88;21611;-88
2023/01/30 16:03:39;;;;;;;;;;;;;;;;;;;;;
2023/01/30 16:06:16;;;;;;;4.37;1.90;;;;;;;2.13;71.77;97600.31;1427600;97;21688;-88
2023/01/30 16:09:07;;;;;;;7.33;2.30;;;;;;;2.09;71.96;97601.38;1444010;97;21628;-89
2023/01/30 16:11:39;;;;;;;4.62;1.98;;;;;;;2.08;72.14;97597.15;1456977;97;21127;-89
2023/01/30 16:14:40;;;;;;;6.55;2.30;;;;;;;2.05;72.14;97607.59;1448191;96;21140;-90
2023/01/30 16:17:10;;;;;;;6.10;2.08;;;;;;;2.05;72.14;97597.30;1453612;97;21169;-89
2023/01/30 16:19:38;;;;;;;10.13;2.45;;;;;;;2.03;72.15;97596.53;1450767;97;21090;-88
2023/01/30 16:22:15;;;;;;;5.83;1.70;;;;;;;2.03;72.44;97591.38;1449714;96;21114;-89
2023/01/30 16:24:47;;;;;;;7.85;2.02;;;;;;;2.03;72.53;97581.08;1453039;97;21143;-90
2023/01/30 16:27:27;;;;;;;9.50;2.17;;;;;;;2.06;72.82;97596.38;1451701;98;22013;-90
2023/01/30 16:29:57;;;;;;;8.15;2.37;;;;;;;2.06;72.82;97594.63;1477901;94;21627;-90
2023/01/30 16:32:28;;;;;;;7.33;1.50;;;;;;;2.06;72.99;97592.52;1479779;94;21589;-90
2023/01/30 16:35:32;;;;;;;7.25;2.22;;;;;;;2.04;73.14;97593.03;1476872;96;21654;-89
2023/01/30 16:37:59;;;;;;;7.75;2.50;;;;;;;2.06;73.44;97611.82;1501721;93;21620;-89
2023/01/30 16:40:43;;;;;;;11.00;3.17;;;;;;;2.11;73.52;97597.83;1578428;88;21066;-90
2023/01/30 16:43:43;;;;;;;;;;;;;;;;;;;;;
2023/01/30 16:46:39;;;;;;;13.05;3.92;;;;;;;2.16;73.59;97615.19;1568585;89;21833;-89
2023/01/30 16:49:36;;;;;;;10.80;3.47;;;;;;;2.17;73.43;97608.30;1517536;91;21531;-93
2023/01/30 16:52:22;;;;;;;13.05;2.20;;;;;;;2.15;73.61;97608.81;1521944;93;21502;-94
2023/01/30 16:55:06;;;;;;;9.08;3.05;;;;;;;2.09;73.80;97611.67;1524821;93;21514;-93
2023/01/30 16:57:52;;;;;;;7.58;2.92;;;;;;;2.03;74.26;97597.35;1522192;93;21184;-93
2023/01/30 17:00:45;;;;;;;12.65;4.75;;;;;;;1.96;74.03;97596.81;1511747;92;21163;-93
2023/01/30 17:06:15;;;;;;;;;;;;;;;;;;;;;
2023/01/30 17:09:08;;;;;;;10.40;2.50;;;;;;;1.85;74.52;97620.92;1535274;90;21240;-93
2023/01/30 17:11:39;;;;;;;10.43;2.52;;;;;;;1.84;74.81;97628.24;1553442;90;21257;-90
2023/01/30 17:14:19;;;;;;;12.78;2.72;;;;;;;1.82;75.05;97631.78;1536288;92;21460;-93
2023/01/30 17:17:11;;;;;;;;;;;;;;;;;;;;;
2023/01/30 17:19:40;;;;;;;;;;;;;;;;;;;;;
2023/01/30 17:29:23;;;;;;;;;;;;;;;;;;;;;
2023/01/30 17:32:53;;;;;;;;;;;;;;;;;;;;;
2023/01/30 17:35:28;;;;;;;9.85;2.17;;;;;;;2.15;76.14;97639.70;1389204;100;21585;-93
2023/01/30 17:37:56;;;;;;;6.03;1.95;;;;;;;2.19;76.22;97648.97;1391055;101;21991;-93
2023/01/30 17:40:42;;;;;;;10.82;2.67;;;;;;;2.27;76.60;97662.33;1343250;104;21182;-92
2023/01/30 17:46:12;;;;;;;12.13;3.30;;;;;;;2.32;76.65;97644.06;1328804;105;21271;-92
2023/01/30 17:49:07;;;;;;;13.43;2.50;;;;;;;2.35;77.33;97655.08;1294846;108;21240;-93
2023/01/30 17:51:52;;;;;;;;;;;;;;;;;;;;;
2023/01/30 17:54:41;;;;;;;;;;;;;;;;;;;;;
2023/01/30 17:57:35;;;;;;;;;;;;;;;;;;;;;
2023/01/30 18:00:08;;;;;;;;;;;;;;;;;;;;;
2023/01/30 18:02:31;;;;;;;7.58;2.62;;;;;;;2.48;77.77;97675.09;1309778;107;21275;-92
2023/01/30 18:05:01;;;;;;;14.07;2.60;;;;;;;2.49;77.99;97667.73;1307295;107;21624;-94
2023/01/30 18:07:38;;;;;;;7.85;2.20;;;;;;;2.48;78.00;97654.48;1302408;107;21270;-95
2023/01/30 18:10:11;;;;;;;;;;;;;;;;;;;;;
2023/01/30 18:12:55;;;;;;;9.60;2.42;;;;;;;2.51;78.06;97662.06;1298613;108;22001;-94
2023/01/30 18:18:14;;;;;;;10.85;2.20;;;;;;;2.60;78.66;97679.66;1281861;109;21280;-94
2023/01/30 18:20:51;;;;;;;12.40;2.58;;;;;;;2.58;78.67;97673.77;1257065;111;21359;-95
2023/01/30 18:23:25;;;;;;;16.85;3.12;;;;;;;2.59;78.58;97671.55;1269371;110;21328;-95
2023/01/30 18:25:51;;;;;;;15.05;3.72;;;;;;;2.62;78.84;97672.70;1273686;109;21258;-94
2023/01/30 18:28:27;;;;;;;10.60;3.42;;;;;;;2.63;78.83;97680.80;1271959;110;22462;-92
2023/01/30 18:31:07;;;;;;;;;;;;;;;;;;;;;
2023/01/30 18:33:39;;;;;;;12.00;3.00;;;;;;;2.69;79.05;97666.35;1273694;109;21784;-94
2023/01/30 18:36:16;;;;;;;11.35;2.67;;;;;;;2.72;79.12;97672.64;1271781;110;21873;-94
2023/01/30 18:42:15;;;;;;;8.35;3.50;;;;;;;2.79;79.18;97684.30;1244832;108;2002444;-92
2023/01/30 18:44:49;;;;;;;12.40;2.67;;;;;;;2.85;79.23;97697.35;1271308;109;22072;-94
2023/01/30 18:47:59;;;;;;;;;;;;;;;;;;;;;
2023/01/30 18:50:17;;;;;;;8.05;2.50;;;;;;;2.91;79.14;97700.48;1274271;109;21286;-95
2023/01/30 18:52:52;;;;;;;7.90;2.20;;;;;;;2.94;79.26;97701.22;1275381;110;21299;-94
2023/01/30 18:55:15;;;;;;;14.20;3.22;;;;;;;2.98;79.29;97707.91;1268582;110;21397;-92
2023/01/30 18:57:42;;;;;;;14.18;3.27;;;;;;;2.99;79.39;97719.89;1320045;104;21193;-96
2023/01/30 19:00:24;;;;;;;;;;;;;;;;;;;;;
2023/01/30 19:02:54;;;;;;;12.80;2.85;;;;;;;3.01;79.46;97715.50;1342385;105;21627;-93
2023/01/30 19:05:22;;;;;;;12.53;3.10;;;;;;;3.03;79.46;97713.69;1323272;106;21243;-93
2023/01/30 19:07:51;;;;;;;10.93;2.42;;;;;;;3.06;79.53;97717.41;1301456;108;21190;-94
2023/01/30 19:10:19;;;;;;;11.40;3.15;;;;;;;3.09;79.52;97718.54;1318813;107;21685;-94
2023/01/30 19:15:39;;;;;;;10.35;2.77;;;;;;;3.16;79.67;97731.50;1301078;109;21878;-95
2023/01/30 19:18:24;;;;;;;;;;;;;;;;;;;;;
2023/01/30 19:21:19;;;;;;;14.68;3.33;;;;;;;3.19;79.74;97742.12;1381443;97;21827;-94
2023/01/30 19:24:01;;;;;;;;;;;;;;;;;;;;;
2023/01/30 19:26:22;;;;;;;14.43;2.87;;;;;;;3.20;79.92;97745.09;1398887;99;21206;-95
2023/01/30 19:29:03;;;;;;;11.22;3.20;;;;;;;3.23;79.93;97748.35;1398193;100;21679;-95
2023/01/30 19:31:29;;;;;;;13.98;3.10;;;;;;;3.24;79.98;97759.03;1398631;100;21177;-93
2023/01/30 19:34:09;;;;;;;14.63;3.47;;;;;;;3.29;79.94;97766.56;1404921;99;21151;-94
2023/01/30 19:36:40;;;;;;;15.18;3.87;;;;;;;3.32;79.96;97773.69;1401679;99;21125;-94
2023/01/30 19:39:10;;;;;;;12.93;3.30;;;;;;;3.33;80.05;97771.51;1437976;96;21185;-93
2023/01/30 19:41:37;;;;;;;17.35;3.35;;;;;;;3.33;80.04;97776.66;1442625;96;21037;-94
2023/01/30 19:44:12;;;;;;;10.72;3.12;;;;;;;3.30;80.08;97775.95;1432597;96;21208;-94
2023/01/30 19:46:46;;;;;;;11.90;2.98;;;;;;;3.34;80.18;97778.33;1481081;93;21886;-92
2023/01/30 19:49:13;;;;;;;9.68;2.70;;;;;;;3.36;80.14;97791.98;1502136;93;21115;-94
2023/01/30 19:51:41;;;;;;;9.75;2.98;;;;;;;3.42;80.06;97802.89;1502490;93;21174;-92
2023/01/30 19:54:20;;;;;;;15.63;2.27;;;;;;;3.45;79.99;97802.77;1477137;93;21067;-93
2023/01/30 19:56:47;;;;;;;8.28;2.12;;;;;;;3.47;79.98;97815.12;1487456;93;21092;-94
2023/01/30 19:59:15;;;;;;;9.83;2.10;;;;;;;3.50;79.91;97809.80;1484968;93;21096;-95
2023/01/30 20:01:46;;;;;;;14.80;2.58;;;;;;;3.54;79.95;97779.09;1558784;87;21125;-96
2023/01/30 20:04:12;;;;;;;12.20;2.77;;;;;;;3.54;79.96;97802.31;1590195;87;21939;-92
2023/01/30 20:06:53;;;;;;;;;;;;;;;;;;;;;
2023/01/30 20:09:18;;;;;;;11.65;2.33;;;;;;;3.58;79.95;97814.14;1584631;87;21116;-94
2023/01/30 20:11:44;;;;;;;13.80;2.70;;;;;;;3.59;79.84;97813.25;1590119;87;21044;-95
2023/01/30 20:14:17;;;;;;;9.43;2.77;;;;;;;3.60;79.80;97844.58;1562103;89;21837;-94
2023/01/30 20:16:44;;;;;;;15.28;2.77;;;;;;;3.63;79.87;97839.27;1581406;88;21118;-94
2023/01/30 20:19:16;;;;;;;9.40;2.30;;;;;;;3.63;79.71;97836.69;1578781;88;21127;-91
2023/01/30 20:21:43;;;;;;;9.80;2.72;;;;;;;3.65;79.69;97843.08;1598054;87;21112;-94
2023/01/30 20:24:14;;;;;;;14.40;3.05;;;;;;;3.67;79.72;97845.97;1593036;87;21053;-94
2023/01/30 20:26:41;;;;;;;11.50;2.98;;;;;;;3.70;79.68;97857.42;1593135;88;21072;-93
2023/01/30 20:29:09;;;;;;;19.10;2.80;;;;;;;3.72;79.63;97845.26;1566931;89;21093;-93
2023/01/30 20:31:37;;;;;;;10.90;2.20;;;;;;;3.71;79.58;97853.09;1577099;89;21591;-95
2023/01/30 20:34:11;;;;;;;10.78;2.75;;;;;;;3.65;79.55;97867.13;1587225;89;21132;-93
2023/01/30 20:36:40;;;;;;;10.43;2.10;;;;;;;3.60;79.67;97869.09;1588326;88;21098;-93
2023/01/30 20:39:06;;;;;;;14.55;3.17;;;;;;;3.56;79.64;97863.72;1586517;88;21086;-94
2023/01/30 20:41:36;;;;;;;13.03;3.27;;;;;;;3.54;79.69;97875.85;1581997;88;21052;-95
2023/01/30 20:44:07;;;;;;;10.43;2.30;;;;;;;3.52;79.66;97884.11;1577411;89;21070;-93
2023/01/30 20:46:41;;;;;;;14.05;2.60;;;;;;;3.51;79.57;97883.74;1588928;88;21500;-94
2023/01/30 20:49:15;;;;;;;10.03;2.45;;;;;;;3.51;79.54;97900.52;1591022;88;21110;-94
2023/01/30 20:51:42;;;;;;;11.80;2.58;;;;;;;3.48;79.56;97903.25;1588632;87;21120;-93
2023/01/30 20:54:15;;;;;;;10.50;2.58;;;;;;;3.46;79.46;97902.47;1564853;88;21700;-95
2023/01/30 20:56:48;;;;;;;8.75;2.17;;;;;;;3.43;79.50;97907.78;1576765;88;21569;-94
2023/01/30 20:59:18;;;;;;;12.60;2.77;;;;;;;3.38;79.47;97907.16;1578817;88;21073;-93
2023/01/30 21:01:46;;;;;;;10.50;2.50;;;;;;;3.32;79.44;97908.28;1578049;88;21076;-94
2023/01/30 21:04:18;;;;;;;11.12;3.25;;;;;;;3.29;79.41;97908.43;1584595;88;21371;-93
2023/01/30 21:06:45;;;;;;;9.13;2.55;;;;;;;3.23;79.44;97918.58;1580981;88;21494;-93
2023/01/30 21:09:17;;;;;;;14.28;2.70;;;;;;;3.18;79.38;97919.23;1593692;88;21153;-94
2023/01/30 21:11:44;;;;;;;11.00;2.75;;;;;;;3.14;79.48;97939.64;1577682;89;21507;-94
2023/01/30 21:14:11;;;;;;;11.65;2.37;;;;;;;3.11;79.41;97939.33;1578351;88;21536;-93
2023/01/30 21:16:38;;;;;;;15.78;3.00;;;;;;;3.04;79.39;97921.62;1580110;88;21108;-94
2023/01/30 21:19:09;;;;;;;14.83;2.60;;;;;;;3.07;79.35;97933.08;1567945;88;21079;-93
2023/01/30 21:21:44;;;;;;;12.75;2.85;;;;;;;3.02;79.31;97935.02;1593270;88;21756;-94
2023/01/30 21:24:13;;;;;;;11.50;2.47;;;;;;;2.97;79.33;97933.09;1595778;88;21045;-94
2023/01/30 21:26:44;;;;;;;10.98;2.98;;;;;;;2.95;79.37;97940.09;1594247;87;21095;-94
2023/01/30 21:29:15;;;;;;;11.50;2.60;;;;;;;2.90;79.53;97946.27;1582648;89;21026;-93
2023/01/30 21:31:44;;;;;;;15.43;2.55;;;;;;;2.90;79.38;97950.59;1596309;87;21045;-94
2023/01/30 21:34:16;;;;;;;12.45;3.15;;;;;;;2.85;79.47;97949.95;1584185;87;21165;-94
2023/01/30 21:43:12;;;;;;;8.43;2.30;;;;;;;2.81;79.39;97957.00;1572396;89;21520;-92
2023/01/30 21:44:39;;;;;;;13.40;3.30;;;;;;;2.66;79.61;97962.80;1589716;87;21025;-94
2023/01/30 21:47:07;;;;;;;14.40;2.42;;;;;;;2.64;79.64;97976.23;1581175;86;21080;-94
2023/01/30 21:49:35;;;;;;;12.50;3.10;;;;;;;2.62;79.64;97972.87;1575276;88;21053;-95
2023/01/30 21:52:04;;;;;;;19.52;3.05;;;;;;;2.61;79.68;97985.38;1575566;88;21553;-94
2023/01/30 21:54:30;;;;;;;18.15;3.33;;;;;;;2.59;79.75;97990.59;1581806;88;21102;-93
2023/01/30 21:56:57;;;;;;;12.68;3.40;;;;;;;2.57;79.73;97999.28;1545081;90;21621;-93
2023/01/30 21:59:24;;;;;;;7.28;2.80;;;;;;;2.55;79.66;97995.92;1545182;90;21065;-93
2023/01/30 22:01:50;;;;;;;17.73;3.37;;;;;;;2.53;79.66;98005.48;1556224;90;21086;-94
2023/01/30 22:04:18;;;;;;;9.83;2.83;;;;;;;2.51;79.77;98009.84;1563250;90;21122;-94
2023/01/30 22:06:46;;;;;;;;;;;;;;;2.51;79.72;98015.00;1565428;88;21293;-93
2023/01/30 22:09:14;;;;;;;13.50;2.83;;;;;;;2.45;80.11;98008.37;1556047;90;20121;-94
2023/01/30 22:11:41;;;;;;;12.25;2.77;;;;;;;2.42;80.14;98022.20;1556862;89;21073;-95
2023/01/30 22:14:08;;;;;;;13.30;2.40;;;;;;;2.41;80.04;98024.87;1555101;89;21119;-96
2023/01/30 22:16:34;;;;;;;11.77;2.77;;;;;;;2.39;80.08;98022.80;1544801;90;21094;-95
2023/01/30 22:19:03;;;;;;;10.45;2.27;;;;;;;2.36;80.08;98025.05;1555955;89;21340;-94
2023/01/30 22:21:35;;;;;;;13.25;2.80;;;;;;;2.36;80.08;98035.34;1546468;91;21628;-94
2023/01/30 22:24:06;;;;;;;8.73;2.47;;;;;;;2.36;80.12;98043.08;1546836;90;21167;-94
2023/01/30 22:26:33;;;;;;;11.63;2.58;;;;;;;2.32;80.12;98050.52;1556400;89;21052;-94
2023/01/30 22:29:01;;;;;;;12.80;3.05;;;;;;;2.31;80.20;98045.00;1554498;90;21116;-94
2023/01/30 22:31:33;;;;;;;16.05;3.15;;;;;;;2.31;80.22;98050.14;1546106;90;21104;-94
2023/01/30 22:34:00;;;;;;;7.95;2.20;;;;;;;2.31;80.25;98052.72;1553894;89;21123;-94
2023/01/30 22:36:28;;;;;;;;;;;;;;;2.32;80.23;98062.11;1521164;91;21087;-95
2023/01/30 22:38:55;;;;;;;10.65;2.22;;;;;;;2.30;80.42;98061.36;1555236;90;20167;-95
2023/01/30 22:41:24;;;;;;;9.95;2.60;;;;;;;2.27;80.43;98070.50;1538048;90;21208;-94
2023/01/30 22:43:57;;;;;;;16.65;2.75;;;;;;;2.26;80.43;98062.36;1540244;90;21005;-93
2023/01/30 22:46:30;;;;;;;14.40;3.12;;;;;;;2.23;80.56;98067.64;1540960;91;21101;-92
2023/01/30 22:48:59;;;;;;;13.28;2.83;;;;;;;2.24;80.55;98079.61;1539026;91;21538;-95
2023/01/30 22:51:30;;;;;;;8.63;2.58;;;;;;;2.23;80.58;98080.52;1543546;90;21097;-95
2023/01/30 22:54:00;;;;;;;13.72;3.00;;;;;;;2.21;80.63;98080.59;1544571;90;21592;-95
2023/01/30 22:56:36;;;;;;;11.25;2.55;;;;;;;2.20;80.62;98080.64;1564454;89;21110;-94
2023/01/30 22:59:05;;;;;;;9.45;2.27;;;;;;;2.19;80.61;98084.12;1581436;87;21544;-95
2023/01/30 23:01:38;;;;;;;14.15;2.65;;;;;;;2.17;80.68;98094.47;1591839;88;21147;-94
2023/01/30 23:04:15;;;;;;;10.88;2.95;;;;;;;2.16;80.69;98104.84;1590536;87;21046;-94
2023/01/30 23:06:44;;;;;;;12.88;2.45;;;;;;;2.14;80.72;98104.06;1591162;88;21045;-94
2023/01/30 23:09:18;;;;;;;8.75;1.92;;;;;;;2.12;80.79;98090.40;1586107;88;21059;-95
2023/01/30 23:14:39;;;;;;;9.40;2.02;;;;;;;2.11;80.87;98099.03;1591565;87;21179;-95
2023/01/30 23:19:52;;;;;;;11.12;2.72;;;;;;;2.11;81.02;98109.33;1590800;89;21067;-94
2023/01/30 23:22:18;;;;;;;12.63;2.30;;;;;;;2.14;81.11;98128.06;1587232;89;21022;-93
2023/01/30 23:24:47;;;;;;;12.23;2.22;;;;;;;2.16;81.08;98124.16;1583302;89;21069;-94
2023/01/30 23:27:13;;;;;;;10.98;2.22;;;;;;;2.17;81.09;98139.98;1593892;88;21073;-94
2023/01/30 23:29:40;;;;;;;10.47;2.37;;;;;;;2.19;81.12;98125.33;1590695;87;21192;-92
2023/01/30 23:32:07;;;;;;;14.13;2.52;;;;;;;2.20;81.11;98119.27;1601576;87;21241;-94
2023/01/30 23:34:33;;;;;;;7.03;2.05;;;;;;;2.19;81.18;98118.44;1580695;88;21073;-95
2023/01/30 23:37:00;;;;;;;12.83;3.03;;;;;;;2.21;81.21;98126.08;1579211;89;21097;-96
2023/01/30 23:39:28;;;;;;;11.40;2.50;;;;;;;2.21;81.18;98131.23;1579074;89;21061;-94
2023/01/30 23:41:55;;;;;;;9.95;1.98;;;;;;;2.23;81.18;98129.45;1577102;89;21420;-94
2023/01/30 23:44:21;;;;;;;15.53;3.52;;;;;;;2.24;81.19;98120.81;1580110;88;21094;-95
2023/01/30 23:46:48;;;;;;;13.70;2.60;;;;;;;2.23;81.25;98120.43;1582789;89;21149;-95
2023/01/30 23:49:15;;;;;;;10.45;1.90;;;;;;;2.24;81.28;98131.11;1588695;89;21147;-93
2023/01/30 23:51:44;;;;;;;11.80;2.10;;;;;;;2.23;81.21;98135.88;1586516;89;21729;-93
2023/01/30 23:54:13;;;;;;;9.93;2.42;;;;;;;2.22;81.25;98138.08;1575777;89;21100;-95
2023/01/30 23:56:43;;;;;;;10.38;1.70;;;;;;;2.24;81.30;98142.70;1602527;87;21110;-94
2023/01/30 23:59:11;;;;;;;11.28;2.00;;;;;;;2.23;81.29;98144.89;1580260;88;21103;-95
